sensor_id;sensor_type;location;lat;lon;timestamp;temperature;humidity
16995;DHT22;8614;48.522;9.206;2023-08-30T00:00:45;13.50;99.90
16995;DHT22;8614;48.522;9.206;2023-08-30T00:03:13;13.50;99.90
16995;DHT22;8614;48.522;9.206;2023-08-30T00:05:40;13.50;99.90
16995;DHT22;8614;48.522;9.206;2023-08-30T00:08:07;13.50;99.90
16995;DHT22;8614;48.522;9.206;2023-08-30T00:10:34;13.50;99.90
16995;DHT22;8614;48.522;9.206;2023-08-30T00:13:01;13.50;99.90
16995;DHT22;8614;48.522;9.206;2023-08-30T00:15:29;13.50;99.90
16995;DHT22;8614;48.522;9.206;2023-08-30T00:17:56;13.60;99.90
16995;DHT22;8614;48.522;9.206;2023-08-30T00:20:23;13.60;99.90
16995;DHT22;8614;48.522;9.206;2023-08-30T00:22:50;13.50;99.90
16995;DHT22;8614;48.522;9.206;2023-08-30T00:25:17;13.60;99.90
16995;DHT22;8614;48.522;9.206;2023-08-30T00:27:43;13.50;99.90
16995;DHT22;8614;48.522;9.206;2023-08-30T00:30:11;13.50;99.90
16995;DHT22;8614;48.522;9.206;2023-08-30T00:32:40;13.50;99.90
16995;DHT22;8614;48.522;9.206;2023-08-30T00:35:07;13.40;99.90
16995;DHT22;8614;48.522;9.206;2023-08-30T00:37:34;13.50;99.90
16995;DHT22;8614;48.522;9.206;2023-08-30T00:40:01;13.40;99.90
16995;DHT22;8614;48.522;9.206;2023-08-30T00:42:28;13.50;99.90
16995;DHT22;8614;48.522;9.206;2023-08-30T00:44:55;13.40;99.90
16995;DHT22;8614;48.522;9.206;2023-08-30T00:47:22;13.40;99.90
16995;DHT22;8614;48.522;9.206;2023-08-30T00:49:51;13.40;99.90
16995;DHT22;8614;48.522;9.206;2023-08-30T00:52:18;13.40;99.90
16995;DHT22;8614;48.522;9.206;2023-08-30T00:54:45;13.40;99.90
16995;DHT22;8614;48.522;9.206;2023-08-30T00:57:12;13.40;99.90
16995;DHT22;8614;48.522;9.206;2023-08-30T00:59:39;13.40;99.90
16995;DHT22;8614;48.522;9.206;2023-08-30T01:02:06;13.40;99.90
16995;DHT22;8614;48.522;9.206;2023-08-30T01:04:33;13.40;99.90
16995;DHT22;8614;48.522;9.206;2023-08-30T01:07:01;13.40;99.90
16995;DHT22;8614;48.522;9.206;2023-08-30T01:09:28;13.30;99.90
16995;DHT22;8614;48.522;9.206;2023-08-30T01:11:58;13.30;99.90
16995;DHT22;8614;48.522;9.206;2023-08-30T01:14:31;13.20;99.90
16995;DHT22;8614;48.522;9.206;2023-08-30T01:17:01;13.20;99.90
16995;DHT22;8614;48.522;9.206;2023-08-30T01:19:39;13.20;99.90
16995;DHT22;8614;48.522;9.206;2023-08-30T01:22:15;13.10;99.90
16995;DHT22;8614;48.522;9.206;2023-08-30T01:24:48;13.10;99.90
16995;DHT22;8614;48.522;9.206;2023-08-30T01:27:20;13.00;99.90
16995;DHT22;8614;48.522;9.206;2023-08-30T01:29:49;13.00;99.90
16995;DHT22;8614;48.522;9.206;2023-08-30T01:32:16;13.00;99.90
16995;DHT22;8614;48.522;9.206;2023-08-30T01:34:46;13.00;99.90
16995;DHT22;8614;48.522;9.206;2023-08-30T01:37:15;13.00;99.90
16995;DHT22;8614;48.522;9.206;2023-08-30T01:39:42;13.00;99.90
16995;DHT22;8614;48.522;9.206;2023-08-30T01:42:09;12.90;99.90
16995;DHT22;8614;48.522;9.206;2023-08-30T01:44:38;12.90;99.90
16995;DHT22;8614;48.522;9.206;2023-08-30T01:47:07;12.90;99.90
16995;DHT22;8614;48.522;9.206;2023-08-30T01:49:36;12.90;99.90
16995;DHT22;8614;48.522;9.206;2023-08-30T01:52:04;12.90;99.90
16995;DHT22;8614;48.522;9.206;2023-08-30T01:54:32;12.80;99.90
16995;DHT22;8614;48.522;9.206;2023-08-30T01:56:59;12.80;99.90
16995;DHT22;8614;48.522;9.206;2023-08-30T01:59:26;12.80;99.90
16995;DHT22;8614;48.522;9.206;2023-08-30T02:01:54;12.80;99.90
16995;DHT22;8614;48.522;9.206;2023-08-30T02:04:22;12.70;99.90
16995;DHT22;8614;48.522;9.206;2023-08-30T02:06:54;12.70;99.90
16995;DHT22;8614;48.522;9.206;2023-08-30T02:09:26;12.70;99.90
16995;DHT22;8614;48.522;9.206;2023-08-30T02:11:55;12.70;99.90
16995;DHT22;8614;48.522;9.206;2023-08-30T02:14:24;12.70;99.90
16995;DHT22;8614;48.522;9.206;2023-08-30T02:16:55;12.70;99.90
16995;DHT22;8614;48.522;9.206;2023-08-30T02:19:22;12.70;99.90
16995;DHT22;8614;48.522;9.206;2023-08-30T02:21:49;12.70;99.90
16995;DHT22;8614;48.522;9.206;2023-08-30T02:24:17;12.80;99.90
16995;DHT22;8614;48.522;9.206;2023-08-30T02:26:44;12.80;99.90
16995;DHT22;8614;48.522;9.206;2023-08-30T02:29:12;12.80;99.90
16995;DHT22;8614;48.522;9.206;2023-08-30T02:31:40;12.90;99.90
16995;DHT22;8614;48.522;9.206;2023-08-30T02:34:08;12.90;99.90
16995;DHT22;8614;48.522;9.206;2023-08-30T02:36:36;12.90;99.90
16995;DHT22;8614;48.522;9.206;2023-08-30T02:39:03;12.90;99.90
16995;DHT22;8614;48.522;9.206;2023-08-30T02:41:30;12.90;99.90
16995;DHT22;8614;48.522;9.206;2023-08-30T02:43:57;12.90;99.90
16995;DHT22;8614;48.522;9.206;2023-08-30T02:46:23;12.90;99.90
16995;DHT22;8614;48.522;9.206;2023-08-30T02:48:50;12.90;99.90
16995;DHT22;8614;48.522;9.206;2023-08-30T02:51:18;12.90;99.90
16995;DHT22;8614;48.522;9.206;2023-08-30T02:53:45;12.90;99.90
16995;DHT22;8614;48.522;9.206;2023-08-30T02:56:12;12.90;99.90
16995;DHT22;8614;48.522;9.206;2023-08-30T02:58:38;12.90;99.90
16995;DHT22;8614;48.522;9.206;2023-08-30T03:01:05;12.90;99.90
16995;DHT22;8614;48.522;9.206;2023-08-30T03:03:33;12.90;99.90
16995;DHT22;8614;48.522;9.206;2023-08-30T03:06:01;13.00;99.90
16995;DHT22;8614;48.522;9.206;2023-08-30T03:08:30;13.00;99.90
16995;DHT22;8614;48.522;9.206;2023-08-30T03:11:07;13.00;99.90
16995;DHT22;8614;48.522;9.206;2023-08-30T03:13:34;12.90;99.90
16995;DHT22;8614;48.522;9.206;2023-08-30T03:16:09;12.90;99.90
16995;DHT22;8614;48.522;9.206;2023-08-30T03:18:36;12.90;99.90
16995;DHT22;8614;48.522;9.206;2023-08-30T03:21:03;12.90;99.90
16995;DHT22;8614;48.522;9.206;2023-08-30T03:23:32;13.00;99.90
16995;DHT22;8614;48.522;9.206;2023-08-30T03:25:59;13.00;99.90
16995;DHT22;8614;48.522;9.206;2023-08-30T03:28:26;12.90;99.90
16995;DHT22;8614;48.522;9.206;2023-08-30T03:30:53;12.90;99.90
16995;DHT22;8614;48.522;9.206;2023-08-30T03:33:21;12.90;99.90
16995;DHT22;8614;48.522;9.206;2023-08-30T03:35:48;12.90;99.90
16995;DHT22;8614;48.522;9.206;2023-08-30T03:38:15;12.90;99.90
16995;DHT22;8614;48.522;9.206;2023-08-30T03:40:44;12.90;99.90
16995;DHT22;8614;48.522;9.206;2023-08-30T03:43:11;12.90;99.90
16995;DHT22;8614;48.522;9.206;2023-08-30T03:45:38;12.90;99.90
16995;DHT22;8614;48.522;9.206;2023-08-30T03:48:05;12.90;99.90
16995;DHT22;8614;48.522;9.206;2023-08-30T03:50:32;12.80;99.90
16995;DHT22;8614;48.522;9.206;2023-08-30T03:53:00;12.80;99.90
16995;DHT22;8614;48.522;9.206;2023-08-30T03:55:26;12.80;99.90
16995;DHT22;8614;48.522;9.206;2023-08-30T03:57:54;12.80;99.90
16995;DHT22;8614;48.522;9.206;2023-08-30T04:00:22;12.70;99.90
16995;DHT22;8614;48.522;9.206;2023-08-30T04:02:49;12.70;99.90
16995;DHT22;8614;48.522;9.206;2023-08-30T04:05:16;12.70;99.90
16995;DHT22;8614;48.522;9.206;2023-08-30T04:07:43;12.70;99.90
16995;DHT22;8614;48.522;9.206;2023-08-30T04:10:10;12.70;99.90
16995;DHT22;8614;48.522;9.206;2023-08-30T04:12:37;12.70;99.90
16995;DHT22;8614;48.522;9.206;2023-08-30T04:15:06;12.80;99.90
16995;DHT22;8614;48.522;9.206;2023-08-30T04:17:33;12.80;99.90
16995;DHT22;8614;48.522;9.206;2023-08-30T04:20:00;12.80;99.90
16995;DHT22;8614;48.522;9.206;2023-08-30T04:22:27;12.80;99.90
16995;DHT22;8614;48.522;9.206;2023-08-30T04:24:54;12.80;99.90
16995;DHT22;8614;48.522;9.206;2023-08-30T04:27:21;12.80;99.90
16995;DHT22;8614;48.522;9.206;2023-08-30T04:29:48;12.70;99.90
16995;DHT22;8614;48.522;9.206;2023-08-30T04:32:16;12.70;99.90
16995;DHT22;8614;48.522;9.206;2023-08-30T04:34:43;12.60;99.90
16995;DHT22;8614;48.522;9.206;2023-08-30T04:37:10;12.60;99.90
16995;DHT22;8614;48.522;9.206;2023-08-30T04:39:36;12.60;99.90
16995;DHT22;8614;48.522;9.206;2023-08-30T04:42:04;12.50;99.90
16995;DHT22;8614;48.522;9.206;2023-08-30T04:44:31;12.50;99.90
16995;DHT22;8614;48.522;9.206;2023-08-30T04:46:58;12.50;99.90
16995;DHT22;8614;48.522;9.206;2023-08-30T04:49:26;12.50;99.90
16995;DHT22;8614;48.522;9.206;2023-08-30T04:51:55;12.60;99.90
16995;DHT22;8614;48.522;9.206;2023-08-30T04:54:22;12.60;99.90
16995;DHT22;8614;48.522;9.206;2023-08-30T04:56:49;12.60;99.90
16995;DHT22;8614;48.522;9.206;2023-08-30T04:59:17;12.60;99.90
16995;DHT22;8614;48.522;9.206;2023-08-30T05:01:46;12.60;99.90
16995;DHT22;8614;48.522;9.206;2023-08-30T05:04:13;12.60;99.90
16995;DHT22;8614;48.522;9.206;2023-08-30T05:06:42;12.70;99.90
16995;DHT22;8614;48.522;9.206;2023-08-30T05:09:09;12.70;99.90
16995;DHT22;8614;48.522;9.206;2023-08-30T05:11:36;12.70;99.90
16995;DHT22;8614;48.522;9.206;2023-08-30T05:14:03;12.80;99.90
16995;DHT22;8614;48.522;9.206;2023-08-30T05:16:30;12.90;99.90
16995;DHT22;8614;48.522;9.206;2023-08-30T05:18:57;12.90;99.90
16995;DHT22;8614;48.522;9.206;2023-08-30T05:21:23;12.90;99.90
16995;DHT22;8614;48.522;9.206;2023-08-30T05:23:53;13.00;99.90
16995;DHT22;8614;48.522;9.206;2023-08-30T05:26:20;13.00;99.90
16995;DHT22;8614;48.522;9.206;2023-08-30T05:28:47;13.10;99.90
16995;DHT22;8614;48.522;9.206;2023-08-30T05:31:14;13.20;99.90
16995;DHT22;8614;48.522;9.206;2023-08-30T05:34:02;13.30;99.90
16995;DHT22;8614;48.522;9.206;2023-08-30T05:36:29;13.30;99.90
16995;DHT22;8614;48.522;9.206;2023-08-30T05:39:04;13.30;99.90
16995;DHT22;8614;48.522;9.206;2023-08-30T05:41:36;13.30;99.90
16995;DHT22;8614;48.522;9.206;2023-08-30T05:44:04;13.30;99.90
16995;DHT22;8614;48.522;9.206;2023-08-30T05:46:31;13.30;99.90
16995;DHT22;8614;48.522;9.206;2023-08-30T05:48:58;13.40;99.90
16995;DHT22;8614;48.522;9.206;2023-08-30T05:51:26;13.50;99.90
16995;DHT22;8614;48.522;9.206;2023-08-30T05:53:53;13.50;99.90
16995;DHT22;8614;48.522;9.206;2023-08-30T05:56:21;13.50;99.90
16995;DHT22;8614;48.522;9.206;2023-08-30T05:58:48;13.50;99.90
16995;DHT22;8614;48.522;9.206;2023-08-30T06:01:17;13.60;99.90
16995;DHT22;8614;48.522;9.206;2023-08-30T06:03:44;13.70;99.90
16995;DHT22;8614;48.522;9.206;2023-08-30T06:06:12;13.70;99.90
16995;DHT22;8614;48.522;9.206;2023-08-30T06:08:39;13.80;99.90
16995;DHT22;8614;48.522;9.206;2023-08-30T06:11:06;13.80;99.90
16995;DHT22;8614;48.522;9.206;2023-08-30T06:13:34;13.80;99.90
16995;DHT22;8614;48.522;9.206;2023-08-30T06:16:01;13.90;99.90
16995;DHT22;8614;48.522;9.206;2023-08-30T06:18:30;13.90;99.90
16995;DHT22;8614;48.522;9.206;2023-08-30T06:20:57;13.90;99.90
16995;DHT22;8614;48.522;9.206;2023-08-30T06:23:23;13.90;99.90
16995;DHT22;8614;48.522;9.206;2023-08-30T06:25:54;13.90;99.90
16995;DHT22;8614;48.522;9.206;2023-08-30T06:28:21;14.00;99.90
16995;DHT22;8614;48.522;9.206;2023-08-30T06:30:49;14.10;99.90
16995;DHT22;8614;48.522;9.206;2023-08-30T06:33:16;14.20;99.90
16995;DHT22;8614;48.522;9.206;2023-08-30T06:35:43;14.30;99.90
16995;DHT22;8614;48.522;9.206;2023-08-30T06:38:10;14.40;99.90
16995;DHT22;8614;48.522;9.206;2023-08-30T06:40:37;14.50;99.90
16995;DHT22;8614;48.522;9.206;2023-08-30T06:43:09;14.60;99.90
16995;DHT22;8614;48.522;9.206;2023-08-30T06:45:35;14.60;99.90
16995;DHT22;8614;48.522;9.206;2023-08-30T06:48:06;14.70;99.90
16995;DHT22;8614;48.522;9.206;2023-08-30T06:50:33;14.80;99.90
16995;DHT22;8614;48.522;9.206;2023-08-30T06:52:59;14.90;99.90
16995;DHT22;8614;48.522;9.206;2023-08-30T06:55:26;15.00;99.90
16995;DHT22;8614;48.522;9.206;2023-08-30T06:57:53;15.10;99.90
16995;DHT22;8614;48.522;9.206;2023-08-30T07:00:20;15.20;99.90
16995;DHT22;8614;48.522;9.206;2023-08-30T07:02:47;15.20;99.90
16995;DHT22;8614;48.522;9.206;2023-08-30T07:05:15;15.40;99.90
16995;DHT22;8614;48.522;9.206;2023-08-30T07:07:42;15.50;99.90
16995;DHT22;8614;48.522;9.206;2023-08-30T07:10:09;15.60;99.90
16995;DHT22;8614;48.522;9.206;2023-08-30T07:12:36;15.60;99.90
16995;DHT22;8614;48.522;9.206;2023-08-30T07:15:03;15.70;99.90
16995;DHT22;8614;48.522;9.206;2023-08-30T07:17:30;15.80;99.90
16995;DHT22;8614;48.522;9.206;2023-08-30T07:19:57;16.00;99.90
16995;DHT22;8614;48.522;9.206;2023-08-30T07:22:25;16.00;99.90
16995;DHT22;8614;48.522;9.206;2023-08-30T07:24:52;16.20;99.90
16995;DHT22;8614;48.522;9.206;2023-08-30T07:27:19;16.20;99.90
16995;DHT22;8614;48.522;9.206;2023-08-30T07:29:46;16.40;99.90
16995;DHT22;8614;48.522;9.206;2023-08-30T07:32:12;16.50;99.90
16995;DHT22;8614;48.522;9.206;2023-08-30T07:34:40;16.70;99.90
16995;DHT22;8614;48.522;9.206;2023-08-30T07:37:17;16.90;99.90
16995;DHT22;8614;48.522;9.206;2023-08-30T07:39:46;17.00;99.90
16995;DHT22;8614;48.522;9.206;2023-08-30T07:42:13;17.10;99.90
16995;DHT22;8614;48.522;9.206;2023-08-30T07:44:40;17.30;99.90
16995;DHT22;8614;48.522;9.206;2023-08-30T07:47:07;17.40;99.90
16995;DHT22;8614;48.522;9.206;2023-08-30T07:49:34;17.50;99.90
16995;DHT22;8614;48.522;9.206;2023-08-30T07:52:01;17.70;99.90
16995;DHT22;8614;48.522;9.206;2023-08-30T07:54:28;17.80;99.90
16995;DHT22;8614;48.522;9.206;2023-08-30T07:56:56;17.70;99.90
16995;DHT22;8614;48.522;9.206;2023-08-30T07:59:23;17.80;99.90
16995;DHT22;8614;48.522;9.206;2023-08-30T08:01:49;17.90;99.90
16995;DHT22;8614;48.522;9.206;2023-08-30T08:04:18;18.00;99.90
16995;DHT22;8614;48.522;9.206;2023-08-30T08:06:45;18.10;99.90
16995;DHT22;8614;48.522;9.206;2023-08-30T08:09:11;18.20;99.90
16995;DHT22;8614;48.522;9.206;2023-08-30T08:11:38;18.20;99.90
16995;DHT22;8614;48.522;9.206;2023-08-30T08:14:10;18.20;99.90
16995;DHT22;8614;48.522;9.206;2023-08-30T08:16:38;18.20;99.90
16995;DHT22;8614;48.522;9.206;2023-08-30T08:19:05;18.30;99.90
16995;DHT22;8614;48.522;9.206;2023-08-30T08:21:33;18.30;99.90
16995;DHT22;8614;48.522;9.206;2023-08-30T08:23:59;18.40;99.90
16995;DHT22;8614;48.522;9.206;2023-08-30T08:26:26;18.50;99.90
16995;DHT22;8614;48.522;9.206;2023-08-30T08:28:53;18.50;99.90
16995;DHT22;8614;48.522;9.206;2023-08-30T08:31:22;18.50;99.90
16995;DHT22;8614;48.522;9.206;2023-08-30T08:33:51;18.70;99.90
16995;DHT22;8614;48.522;9.206;2023-08-30T08:36:31;18.80;99.90
16995;DHT22;8614;48.522;9.206;2023-08-30T08:38:58;18.80;99.90
16995;DHT22;8614;48.522;9.206;2023-08-30T08:41:27;19.00;99.90
16995;DHT22;8614;48.522;9.206;2023-08-30T08:43:58;19.00;99.90
16995;DHT22;8614;48.522;9.206;2023-08-30T08:46:29;19.10;99.90
16995;DHT22;8614;48.522;9.206;2023-08-30T08:48:57;19.20;99.90
16995;DHT22;8614;48.522;9.206;2023-08-30T08:51:26;19.20;99.90
16995;DHT22;8614;48.522;9.206;2023-08-30T08:53:55;19.30;99.90
16995;DHT22;8614;48.522;9.206;2023-08-30T08:56:25;19.50;99.90
16995;DHT22;8614;48.522;9.206;2023-08-30T08:58:52;19.80;99.90
16995;DHT22;8614;48.522;9.206;2023-08-30T09:01:19;19.90;99.90
16995;DHT22;8614;48.522;9.206;2023-08-30T09:03:47;20.10;99.90
16995;DHT22;8614;48.522;9.206;2023-08-30T09:06:14;20.10;99.90
16995;DHT22;8614;48.522;9.206;2023-08-30T09:08:42;20.20;99.90
16995;DHT22;8614;48.522;9.206;2023-08-30T09:11:09;20.20;99.90
16995;DHT22;8614;48.522;9.206;2023-08-30T09:13:36;20.40;99.90
16995;DHT22;8614;48.522;9.206;2023-08-30T09:16:10;20.50;99.90
16995;DHT22;8614;48.522;9.206;2023-08-30T09:18:37;20.50;99.90
16995;DHT22;8614;48.522;9.206;2023-08-30T09:21:09;20.60;99.90
16995;DHT22;8614;48.522;9.206;2023-08-30T09:23:36;20.60;99.90
16995;DHT22;8614;48.522;9.206;2023-08-30T09:26:04;20.70;99.90
16995;DHT22;8614;48.522;9.206;2023-08-30T09:28:31;20.60;99.90
16995;DHT22;8614;48.522;9.206;2023-08-30T09:30:58;20.70;99.90
16995;DHT22;8614;48.522;9.206;2023-08-30T09:33:33;20.90;99.90
16995;DHT22;8614;48.522;9.206;2023-08-30T09:36:01;21.10;99.90
16995;DHT22;8614;48.522;9.206;2023-08-30T09:38:29;21.20;99.90
16995;DHT22;8614;48.522;9.206;2023-08-30T09:41:03;21.20;99.90
16995;DHT22;8614;48.522;9.206;2023-08-30T09:43:32;21.30;99.90
16995;DHT22;8614;48.522;9.206;2023-08-30T09:46:03;21.50;99.90
16995;DHT22;8614;48.522;9.206;2023-08-30T09:48:30;21.60;99.90
16995;DHT22;8614;48.522;9.206;2023-08-30T09:50:58;21.90;99.90
16995;DHT22;8614;48.522;9.206;2023-08-30T09:53:26;21.90;99.90
16995;DHT22;8614;48.522;9.206;2023-08-30T09:55:55;22.00;99.90
16995;DHT22;8614;48.522;9.206;2023-08-30T09:58:23;22.20;99.90
16995;DHT22;8614;48.522;9.206;2023-08-30T10:00:53;22.30;99.90
16995;DHT22;8614;48.522;9.206;2023-08-30T10:03:20;22.30;99.90
16995;DHT22;8614;48.522;9.206;2023-08-30T10:05:48;22.10;99.90
16995;DHT22;8614;48.522;9.206;2023-08-30T10:08:15;22.10;99.90
16995;DHT22;8614;48.522;9.206;2023-08-30T10:10:43;22.20;99.90
16995;DHT22;8614;48.522;9.206;2023-08-30T10:13:11;22.00;99.90
16995;DHT22;8614;48.522;9.206;2023-08-30T10:15:45;22.10;99.90
16995;DHT22;8614;48.522;9.206;2023-08-30T10:18:15;21.90;99.90
16995;DHT22;8614;48.522;9.206;2023-08-30T10:20:45;22.20;99.90
16995;DHT22;8614;48.522;9.206;2023-08-30T10:23:13;22.20;99.90
16995;DHT22;8614;48.522;9.206;2023-08-30T10:25:41;22.20;99.90
16995;DHT22;8614;48.522;9.206;2023-08-30T10:28:10;22.00;99.90
16995;DHT22;8614;48.522;9.206;2023-08-30T10:30:38;21.80;99.90
16995;DHT22;8614;48.522;9.206;2023-08-30T10:33:12;21.80;99.90
16995;DHT22;8614;48.522;9.206;2023-08-30T10:35:47;21.90;99.90
16995;DHT22;8614;48.522;9.206;2023-08-30T10:38:24;21.90;99.90
16995;DHT22;8614;48.522;9.206;2023-08-30T10:40:52;21.90;99.90
16995;DHT22;8614;48.522;9.206;2023-08-30T10:43:29;21.80;99.90
16995;DHT22;8614;48.522;9.206;2023-08-30T10:46:01;21.80;99.90
16995;DHT22;8614;48.522;9.206;2023-08-30T10:48:36;21.80;99.90
16995;DHT22;8614;48.522;9.206;2023-08-30T10:51:03;21.70;99.90
16995;DHT22;8614;48.522;9.206;2023-08-30T10:53:31;21.50;99.90
16995;DHT22;8614;48.522;9.206;2023-08-30T10:56:09;21.40;99.90
16995;DHT22;8614;48.522;9.206;2023-08-30T10:58:43;21.40;99.90
16995;DHT22;8614;48.522;9.206;2023-08-30T11:01:11;21.40;99.90
16995;DHT22;8614;48.522;9.206;2023-08-30T11:03:40;21.50;99.90
16995;DHT22;8614;48.522;9.206;2023-08-30T11:06:10;21.60;99.90
16995;DHT22;8614;48.522;9.206;2023-08-30T11:08:39;21.70;99.90
16995;DHT22;8614;48.522;9.206;2023-08-30T11:11:07;21.80;99.90
16995;DHT22;8614;48.522;9.206;2023-08-30T11:13:36;21.80;99.90
16995;DHT22;8614;48.522;9.206;2023-08-30T11:16:04;21.90;99.90
16995;DHT22;8614;48.522;9.206;2023-08-30T11:18:36;21.90;99.90
16995;DHT22;8614;48.522;9.206;2023-08-30T11:21:04;21.90;99.90
16995;DHT22;8614;48.522;9.206;2023-08-30T11:23:31;21.90;99.90
16995;DHT22;8614;48.522;9.206;2023-08-30T11:25:58;21.80;99.90
16995;DHT22;8614;48.522;9.206;2023-08-30T11:28:25;21.80;99.90
16995;DHT22;8614;48.522;9.206;2023-08-30T11:30:53;21.80;99.90
16995;DHT22;8614;48.522;9.206;2023-08-30T11:33:22;21.80;99.90
16995;DHT22;8614;48.522;9.206;2023-08-30T11:35:50;21.80;99.90
16995;DHT22;8614;48.522;9.206;2023-08-30T11:38:18;21.90;99.90
16995;DHT22;8614;48.522;9.206;2023-08-30T11:40:46;21.90;99.90
16995;DHT22;8614;48.522;9.206;2023-08-30T11:43:15;22.00;99.90
16995;DHT22;8614;48.522;9.206;2023-08-30T11:45:42;22.00;99.90
16995;DHT22;8614;48.522;9.206;2023-08-30T11:48:09;21.80;99.90
16995;DHT22;8614;48.522;9.206;2023-08-30T11:50:45;21.70;99.90
16995;DHT22;8614;48.522;9.206;2023-08-30T11:53:13;21.80;99.90
16995;DHT22;8614;48.522;9.206;2023-08-30T11:55:40;21.90;99.90
16995;DHT22;8614;48.522;9.206;2023-08-30T11:58:08;21.90;99.90
16995;DHT22;8614;48.522;9.206;2023-08-30T12:00:35;21.90;99.90
16995;DHT22;8614;48.522;9.206;2023-08-30T12:03:05;22.00;99.90
16995;DHT22;8614;48.522;9.206;2023-08-30T12:05:32;22.30;99.90
16995;DHT22;8614;48.522;9.206;2023-08-30T12:08:02;22.50;99.90
16995;DHT22;8614;48.522;9.206;2023-08-30T12:10:29;22.70;99.90
16995;DHT22;8614;48.522;9.206;2023-08-30T12:12:57;22.70;99.90
16995;DHT22;8614;48.522;9.206;2023-08-30T12:15:24;22.80;99.90
16995;DHT22;8614;48.522;9.206;2023-08-30T12:17:54;22.90;99.90
16995;DHT22;8614;48.522;9.206;2023-08-30T12:20:21;22.80;99.90
16995;DHT22;8614;48.522;9.206;2023-08-30T12:22:49;22.80;99.90
16995;DHT22;8614;48.522;9.206;2023-08-30T12:25:19;22.80;99.90
16995;DHT22;8614;48.522;9.206;2023-08-30T12:27:47;22.80;99.90
16995;DHT22;8614;48.522;9.206;2023-08-30T12:30:14;22.80;99.90
16995;DHT22;8614;48.522;9.206;2023-08-30T12:32:41;22.80;99.90
16995;DHT22;8614;48.522;9.206;2023-08-30T12:35:08;22.60;99.90
16995;DHT22;8614;48.522;9.206;2023-08-30T12:37:35;22.40;99.90
16995;DHT22;8614;48.522;9.206;2023-08-30T12:40:03;22.40;99.90
16995;DHT22;8614;48.522;9.206;2023-08-30T12:42:33;22.60;99.90
16995;DHT22;8614;48.522;9.206;2023-08-30T12:45:00;22.70;99.90
16995;DHT22;8614;48.522;9.206;2023-08-30T12:47:26;22.70;99.90
16995;DHT22;8614;48.522;9.206;2023-08-30T12:49:53;22.70;99.90
16995;DHT22;8614;48.522;9.206;2023-08-30T12:52:20;22.70;99.90
16995;DHT22;8614;48.522;9.206;2023-08-30T12:54:47;22.40;99.90
16995;DHT22;8614;48.522;9.206;2023-08-30T12:57:14;22.00;99.90
16995;DHT22;8614;48.522;9.206;2023-08-30T12:59:42;21.80;99.90
16995;DHT22;8614;48.522;9.206;2023-08-30T13:02:09;21.60;99.90
16995;DHT22;8614;48.522;9.206;2023-08-30T13:04:36;21.60;99.90
16995;DHT22;8614;48.522;9.206;2023-08-30T13:07:04;21.60;99.90
16995;DHT22;8614;48.522;9.206;2023-08-30T13:09:31;21.50;99.90
16995;DHT22;8614;48.522;9.206;2023-08-30T13:11:58;21.60;99.90
16995;DHT22;8614;48.522;9.206;2023-08-30T13:14:25;21.40;99.90
16995;DHT22;8614;48.522;9.206;2023-08-30T13:16:53;21.20;99.90
16995;DHT22;8614;48.522;9.206;2023-08-30T13:19:20;21.10;99.90
16995;DHT22;8614;48.522;9.206;2023-08-30T13:21:47;21.00;99.90
16995;DHT22;8614;48.522;9.206;2023-08-30T13:24:14;20.80;99.90
16995;DHT22;8614;48.522;9.206;2023-08-30T13:26:41;20.70;99.90
16995;DHT22;8614;48.522;9.206;2023-08-30T13:29:08;20.70;99.90
16995;DHT22;8614;48.522;9.206;2023-08-30T13:31:35;20.60;99.90
16995;DHT22;8614;48.522;9.206;2023-08-30T13:34:03;20.70;99.90
16995;DHT22;8614;48.522;9.206;2023-08-30T13:36:30;20.90;99.90
16995;DHT22;8614;48.522;9.206;2023-08-30T13:38:57;21.00;99.90
16995;DHT22;8614;48.522;9.206;2023-08-30T13:41:24;21.20;99.90
16995;DHT22;8614;48.522;9.206;2023-08-30T13:43:51;21.40;99.90
16995;DHT22;8614;48.522;9.206;2023-08-30T13:46:18;21.40;99.90
16995;DHT22;8614;48.522;9.206;2023-08-30T13:48:45;21.50;99.90
16995;DHT22;8614;48.522;9.206;2023-08-30T13:51:14;21.50;99.90
16995;DHT22;8614;48.522;9.206;2023-08-30T13:53:41;21.50;99.90
16995;DHT22;8614;48.522;9.206;2023-08-30T13:56:08;21.50;99.90
16995;DHT22;8614;48.522;9.206;2023-08-30T13:58:35;21.50;99.90
16995;DHT22;8614;48.522;9.206;2023-08-30T14:01:02;21.50;99.90
16995;DHT22;8614;48.522;9.206;2023-08-30T14:03:29;21.40;99.90
16995;DHT22;8614;48.522;9.206;2023-08-30T14:05:56;21.20;99.90
16995;DHT22;8614;48.522;9.206;2023-08-30T14:08:24;21.20;99.90
16995;DHT22;8614;48.522;9.206;2023-08-30T14:10:51;21.30;99.90
16995;DHT22;8614;48.522;9.206;2023-08-30T14:13:18;21.30;99.90
16995;DHT22;8614;48.522;9.206;2023-08-30T14:15:45;21.30;99.90
16995;DHT22;8614;48.522;9.206;2023-08-30T14:18:12;21.20;99.90
16995;DHT22;8614;48.522;9.206;2023-08-30T14:20:39;21.20;99.90
16995;DHT22;8614;48.522;9.206;2023-08-30T14:23:05;21.20;99.90
16995;DHT22;8614;48.522;9.206;2023-08-30T14:25:34;21.20;99.90
16995;DHT22;8614;48.522;9.206;2023-08-30T14:28:01;21.20;99.90
16995;DHT22;8614;48.522;9.206;2023-08-30T14:30:28;21.20;99.90
16995;DHT22;8614;48.522;9.206;2023-08-30T14:32:55;21.20;99.90
16995;DHT22;8614;48.522;9.206;2023-08-30T14:35:22;21.10;99.90
16995;DHT22;8614;48.522;9.206;2023-08-30T14:37:49;21.10;99.90
16995;DHT22;8614;48.522;9.206;2023-08-30T14:40:16;21.00;99.90
16995;DHT22;8614;48.522;9.206;2023-08-30T14:42:48;21.00;99.90
16995;DHT22;8614;48.522;9.206;2023-08-30T14:45:15;20.80;99.90
16995;DHT22;8614;48.522;9.206;2023-08-30T14:47:45;20.70;99.90
16995;DHT22;8614;48.522;9.206;2023-08-30T14:50:12;20.60;99.90
16995;DHT22;8614;48.522;9.206;2023-08-30T14:52:39;20.50;99.90
16995;DHT22;8614;48.522;9.206;2023-08-30T14:55:07;20.60;99.90
16995;DHT22;8614;48.522;9.206;2023-08-30T14:57:34;20.70;99.90
16995;DHT22;8614;48.522;9.206;2023-08-30T15:00:03;20.70;99.90
16995;DHT22;8614;48.522;9.206;2023-08-30T15:02:30;20.60;99.90
16995;DHT22;8614;48.522;9.206;2023-08-30T15:04:57;20.40;99.90
16995;DHT22;8614;48.522;9.206;2023-08-30T15:07:24;20.30;99.90
16995;DHT22;8614;48.522;9.206;2023-08-30T15:09:51;20.10;99.90
16995;DHT22;8614;48.522;9.206;2023-08-30T15:12:17;20.00;99.90
16995;DHT22;8614;48.522;9.206;2023-08-30T15:14:44;19.90;99.90
16995;DHT22;8614;48.522;9.206;2023-08-30T15:17:14;19.80;99.90
16995;DHT22;8614;48.522;9.206;2023-08-30T15:19:41;19.70;99.90
16995;DHT22;8614;48.522;9.206;2023-08-30T15:22:08;19.60;99.90
16995;DHT22;8614;48.522;9.206;2023-08-30T15:24:34;19.40;99.90
16995;DHT22;8614;48.522;9.206;2023-08-30T15:27:01;19.20;99.90
16995;DHT22;8614;48.522;9.206;2023-08-30T15:29:28;18.90;99.90
16995;DHT22;8614;48.522;9.206;2023-08-30T15:32:03;18.70;99.90
16995;DHT22;8614;48.522;9.206;2023-08-30T15:34:32;18.60;99.90
16995;DHT22;8614;48.522;9.206;2023-08-30T15:36:59;18.50;99.90
16995;DHT22;8614;48.522;9.206;2023-08-30T15:39:25;18.50;99.90
16995;DHT22;8614;48.522;9.206;2023-08-30T15:41:52;18.50;99.90
16995;DHT22;8614;48.522;9.206;2023-08-30T15:44:19;18.50;99.90
16995;DHT22;8614;48.522;9.206;2023-08-30T15:47:01;18.50;99.90
16995;DHT22;8614;48.522;9.206;2023-08-30T15:49:56;18.40;99.90